Terminal Aerodrome Forecast
Issued by NWS Shreveport, LA

Home | Current Version | Previous Version | Text Only | Print | Product List | Glossary On
Versions: 1 2 3 4 5 6 7 8 9 10 11 12 13 14 15 16 17 18 19 20 21 22 23 24 25
662
FTUS44 KSHV 232342
TAFLFK
TAF
KLFK 232342Z 2400/2424 16010KT P6SM SKC
     FM240800 15007KT 4SM BR OVC007
     FM241200 15007KT 4SM -RA BR OVC004
     FM241500 17012KT 6SM BR VCSH OVC007
     FM241800 18017KT P6SM -SHRA OVC025
     FM242300 19019KT 4SM -TSRA BR OVC035CB=

USA.gov is the U.S. government's official web portal to all federal, state and local government web resources and services.